sensor_id;sensor_type;location;lat;lon;timestamp;pressure;altitude;pressure_sealevel;temperature;humidity
56582;BME280;42463;52.214;21.238;2023-07-13T00:01:47;99903.92;;;21.08;72.84
56582;BME280;42463;52.214;21.238;2023-07-13T00:03:53;99906.43;;;21.08;72.83
56582;BME280;42463;52.214;21.238;2023-07-13T00:06:01;99906.19;;;21.05;72.75
56582;BME280;42463;52.214;21.238;2023-07-13T00:08:07;99904.11;;;21.01;72.67
56582;BME280;42463;52.214;21.238;2023-07-13T00:10:14;99901.79;;;20.97;72.89
56582;BME280;42463;52.214;21.238;2023-07-13T00:12:26;99899.46;;;20.94;72.93
56582;BME280;42463;52.214;21.238;2023-07-13T00:14:31;99896.14;;;20.92;72.85
56582;BME280;42463;52.214;21.238;2023-07-13T00:16:38;99892.13;;;20.90;72.91
56582;BME280;42463;52.214;21.238;2023-07-13T00:18:45;99893.99;;;20.89;73.04
56582;BME280;42463;52.214;21.238;2023-07-13T00:20:51;99892.73;;;20.89;73.01
56582;BME280;42463;52.214;21.238;2023-07-13T00:22:57;99891.34;;;20.88;72.94
56582;BME280;42463;52.214;21.238;2023-07-13T00:25:02;99894.64;;;20.85;73.05
56582;BME280;42463;52.214;21.238;2023-07-13T00:27:08;99894.54;;;20.85;73.08
56582;BME280;42463;52.214;21.238;2023-07-13T00:29:14;99890.37;;;20.83;72.93
56582;BME280;42463;52.214;21.238;2023-07-13T00:31:20;99887.61;;;20.83;73.13
56582;BME280;42463;52.214;21.238;2023-07-13T00:33:26;99896.16;;;20.84;73.05
56582;BME280;42463;52.214;21.238;2023-07-13T00:35:33;99888.92;;;20.82;72.96
56582;BME280;42463;52.214;21.238;2023-07-13T00:37:39;99887.91;;;20.81;72.75
56582;BME280;42463;52.214;21.238;2023-07-13T00:39:44;99887.41;;;20.80;73.13
56582;BME280;42463;52.214;21.238;2023-07-13T00:41:50;99888.50;;;20.81;73.04
56582;BME280;42463;52.214;21.238;2023-07-13T00:43:57;99884.18;;;20.82;72.93
56582;BME280;42463;52.214;21.238;2023-07-13T00:46:21;99882.07;;;20.83;73.03
56582;BME280;42463;52.214;21.238;2023-07-13T00:48:31;99875.40;;;20.81;72.78
56582;BME280;42463;52.214;21.238;2023-07-13T00:50:38;99874.91;;;20.81;72.85
56582;BME280;42463;52.214;21.238;2023-07-13T00:52:48;99879.02;;;20.78;72.63
56582;BME280;42463;52.214;21.238;2023-07-13T00:54:54;99875.22;;;20.75;72.99
56582;BME280;42463;52.214;21.238;2023-07-13T00:57:03;99878.02;;;20.74;73.01
56582;BME280;42463;52.214;21.238;2023-07-13T00:59:10;99883.46;;;20.74;72.95
56582;BME280;42463;52.214;21.238;2023-07-13T01:03:45;99882.55;;;20.75;72.95
56582;BME280;42463;52.214;21.238;2023-07-13T01:05:51;99887.90;;;20.75;73.06
56582;BME280;42463;52.214;21.238;2023-07-13T01:07:59;99890.30;;;20.76;73.05
56582;BME280;42463;52.214;21.238;2023-07-13T01:10:07;99893.46;;;20.77;73.06
56582;BME280;42463;52.214;21.238;2023-07-13T01:12:13;99898.44;;;20.77;72.88
56582;BME280;42463;52.214;21.238;2023-07-13T01:14:19;99897.85;;;20.76;72.69
56582;BME280;42463;52.214;21.238;2023-07-13T01:16:27;99896.28;;;20.73;72.81
56582;BME280;42463;52.214;21.238;2023-07-13T02:14:23;99920.52;;;21.49;69.22
56582;BME280;42463;52.214;21.238;2023-07-13T02:16:29;99917.02;;;21.45;68.95
56582;BME280;42463;52.214;21.238;2023-07-13T02:18:35;99927.64;;;21.37;68.99
56582;BME280;42463;52.214;21.238;2023-07-13T02:20:40;99931.35;;;21.28;69.23
56582;BME280;42463;52.214;21.238;2023-07-13T02:22:46;99934.83;;;21.21;69.52
56582;BME280;42463;52.214;21.238;2023-07-13T02:24:51;99941.29;;;21.15;69.81
56582;BME280;42463;52.214;21.238;2023-07-13T02:26:57;99942.99;;;21.08;69.79
56582;BME280;42463;52.214;21.238;2023-07-13T02:29:02;99943.46;;;21.01;69.98
56582;BME280;42463;52.214;21.238;2023-07-13T02:31:10;99948.60;;;20.96;70.13
56582;BME280;42463;52.214;21.238;2023-07-13T02:33:16;99948.91;;;20.92;70.39
56582;BME280;42463;52.214;21.238;2023-07-13T02:35:22;99948.20;;;20.89;70.51
56582;BME280;42463;52.214;21.238;2023-07-13T02:37:28;99943.59;;;20.88;70.74
56582;BME280;42463;52.214;21.238;2023-07-13T02:39:34;99942.38;;;20.86;70.83
56582;BME280;42463;52.214;21.238;2023-07-13T02:41:41;99939.52;;;20.83;70.79
56582;BME280;42463;52.214;21.238;2023-07-13T02:43:47;99938.77;;;20.82;71.07
56582;BME280;42463;52.214;21.238;2023-07-13T02:45:53;99937.22;;;20.82;70.95
56582;BME280;42463;52.214;21.238;2023-07-13T02:47:58;99939.93;;;20.82;70.95
56582;BME280;42463;52.214;21.238;2023-07-13T02:50:06;99937.17;;;20.78;70.98
56582;BME280;42463;52.214;21.238;2023-07-13T02:52:11;99936.90;;;20.75;71.08
56582;BME280;42463;52.214;21.238;2023-07-13T02:54:17;99938.37;;;20.72;71.26
56582;BME280;42463;52.214;21.238;2023-07-13T02:56:25;99936.41;;;20.70;71.40
56582;BME280;42463;52.214;21.238;2023-07-13T02:58:32;99932.52;;;20.70;71.29
56582;BME280;42463;52.214;21.238;2023-07-13T03:00:40;99933.40;;;20.68;71.71
56582;BME280;42463;52.214;21.238;2023-07-13T03:02:46;99934.34;;;20.64;71.51
56582;BME280;42463;52.214;21.238;2023-07-13T03:04:51;99936.23;;;20.60;71.59
56582;BME280;42463;52.214;21.238;2023-07-13T03:06:57;99935.52;;;20.56;71.61
56582;BME280;42463;52.214;21.238;2023-07-13T03:09:06;99934.23;;;20.54;71.79
56582;BME280;42463;52.214;21.238;2023-07-13T03:11:14;99935.67;;;20.52;71.80
56582;BME280;42463;52.214;21.238;2023-07-13T03:13:20;99935.95;;;20.50;71.88
56582;BME280;42463;52.214;21.238;2023-07-13T03:15:26;99935.63;;;20.47;71.86
56582;BME280;42463;52.214;21.238;2023-07-13T03:17:32;99936.50;;;20.48;71.97
56582;BME280;42463;52.214;21.238;2023-07-13T03:19:39;99935.11;;;20.46;71.97
56582;BME280;42463;52.214;21.238;2023-07-13T03:21:44;99937.46;;;20.44;72.15
56582;BME280;42463;52.214;21.238;2023-07-13T03:23:50;99933.36;;;20.42;72.26
56582;BME280;42463;52.214;21.238;2023-07-13T03:26:04;99933.81;;;20.43;72.30
56582;BME280;42463;52.214;21.238;2023-07-13T03:28:10;99938.21;;;20.43;71.99
56582;BME280;42463;52.214;21.238;2023-07-13T03:30:17;99935.23;;;20.40;72.08
56582;BME280;42463;52.214;21.238;2023-07-13T03:32:23;99933.52;;;20.36;72.21
56582;BME280;42463;52.214;21.238;2023-07-13T03:34:30;99933.91;;;20.35;72.20
56582;BME280;42463;52.214;21.238;2023-07-13T03:36:35;99933.16;;;20.35;72.25
56582;BME280;42463;52.214;21.238;2023-07-13T03:38:43;99932.02;;;20.37;72.06
56582;BME280;42463;52.214;21.238;2023-07-13T03:40:52;99934.04;;;20.39;72.29
56582;BME280;42463;52.214;21.238;2023-07-13T03:42:58;99931.24;;;20.44;72.23
56582;BME280;42463;52.214;21.238;2023-07-13T03:45:05;99925.58;;;20.50;72.18
56582;BME280;42463;52.214;21.238;2023-07-13T03:47:11;99923.40;;;20.56;72.16
56582;BME280;42463;52.214;21.238;2023-07-13T03:49:16;99924.49;;;20.62;71.74
56582;BME280;42463;52.214;21.238;2023-07-13T03:51:22;99925.77;;;20.68;71.50
56582;BME280;42463;52.214;21.238;2023-07-13T03:53:28;99920.08;;;20.74;71.28
56582;BME280;42463;52.214;21.238;2023-07-13T03:55:34;99918.94;;;20.79;71.25
56582;BME280;42463;52.214;21.238;2023-07-13T03:57:40;99914.17;;;20.84;71.40
56582;BME280;42463;52.214;21.238;2023-07-13T03:59:46;99916.72;;;20.90;71.21
56582;BME280;42463;52.214;21.238;2023-07-13T04:01:52;99910.71;;;20.96;71.34
56582;BME280;42463;52.214;21.238;2023-07-13T04:03:58;99912.55;;;21.02;71.24
56582;BME280;42463;52.214;21.238;2023-07-13T04:06:05;99911.77;;;21.07;71.01
56582;BME280;42463;52.214;21.238;2023-07-13T04:08:11;99912.63;;;21.11;70.93
56582;BME280;42463;52.214;21.238;2023-07-13T04:10:17;99915.83;;;21.13;70.77
56582;BME280;42463;52.214;21.238;2023-07-13T04:12:24;99919.42;;;21.14;70.81
56582;BME280;42463;52.214;21.238;2023-07-13T04:14:30;99920.59;;;21.15;70.74
56582;BME280;42463;52.214;21.238;2023-07-13T04:16:36;99928.06;;;21.17;70.70
56582;BME280;42463;52.214;21.238;2023-07-13T04:18:41;99930.52;;;21.19;71.02
56582;BME280;42463;52.214;21.238;2023-07-13T04:20:47;99937.42;;;21.22;70.78
56582;BME280;42463;52.214;21.238;2023-07-13T04:22:53;99939.94;;;21.26;70.87
56582;BME280;42463;52.214;21.238;2023-07-13T04:24:59;99942.89;;;21.29;70.86
56582;BME280;42463;52.214;21.238;2023-07-13T04:27:06;99954.11;;;21.34;70.91
56582;BME280;42463;52.214;21.238;2023-07-13T04:29:11;99958.72;;;21.39;71.01
56582;BME280;42463;52.214;21.238;2023-07-13T04:31:19;99956.14;;;21.44;71.06
56582;BME280;42463;52.214;21.238;2023-07-13T04:33:25;99957.92;;;21.48;70.87
56582;BME280;42463;52.214;21.238;2023-07-13T04:35:31;99964.45;;;21.54;71.10
56582;BME280;42463;52.214;21.238;2023-07-13T04:37:37;99964.66;;;21.61;71.12
56582;BME280;42463;52.214;21.238;2023-07-13T04:39:42;99964.05;;;21.71;71.31
56582;BME280;42463;52.214;21.238;2023-07-13T04:41:48;99966.68;;;21.80;71.28
56582;BME280;42463;52.214;21.238;2023-07-13T04:43:54;99971.91;;;21.89;71.11
56582;BME280;42463;52.214;21.238;2023-07-13T04:46:06;99970.38;;;21.94;71.11
56582;BME280;42463;52.214;21.238;2023-07-13T04:48:12;99969.48;;;21.98;71.09
56582;BME280;42463;52.214;21.238;2023-07-13T04:50:18;99974.88;;;22.02;71.25
56582;BME280;42463;52.214;21.238;2023-07-13T04:52:27;99978.55;;;22.07;70.99
56582;BME280;42463;52.214;21.238;2023-07-13T04:54:32;99982.25;;;22.13;71.01
56582;BME280;42463;52.214;21.238;2023-07-13T04:56:38;99985.76;;;22.16;70.93
56582;BME280;42463;52.214;21.238;2023-07-13T04:58:43;99994.21;;;22.21;70.86
56582;BME280;42463;52.214;21.238;2023-07-13T05:00:49;99997.30;;;22.24;71.17
56582;BME280;42463;52.214;21.238;2023-07-13T05:02:55;99995.21;;;22.27;71.00
56582;BME280;42463;52.214;21.238;2023-07-13T05:05:01;99992.73;;;22.31;70.95
56582;BME280;42463;52.214;21.238;2023-07-13T05:07:08;99985.30;;;22.36;70.91
56582;BME280;42463;52.214;21.238;2023-07-13T05:09:13;99988.05;;;22.40;70.95
56582;BME280;42463;52.214;21.238;2023-07-13T05:11:19;99990.40;;;22.44;71.01
56582;BME280;42463;52.214;21.238;2023-07-13T05:13:25;99986.17;;;22.47;70.88
56582;BME280;42463;52.214;21.238;2023-07-13T05:15:30;99989.52;;;22.53;70.93
56582;BME280;42463;52.214;21.238;2023-07-13T05:17:36;99990.85;;;22.60;70.67
56582;BME280;42463;52.214;21.238;2023-07-13T05:19:43;99993.64;;;22.66;70.75
56582;BME280;42463;52.214;21.238;2023-07-13T05:21:49;99994.05;;;22.71;70.34
56582;BME280;42463;52.214;21.238;2023-07-13T05:23:55;99997.00;;;22.77;70.55
56582;BME280;42463;52.214;21.238;2023-07-13T05:26:01;99997.17;;;22.79;70.13
56582;BME280;42463;52.214;21.238;2023-07-13T05:28:07;99999.50;;;22.82;70.18
56582;BME280;42463;52.214;21.238;2023-07-13T05:30:14;99999.41;;;22.86;70.12
56582;BME280;42463;52.214;21.238;2023-07-13T05:32:20;100003.53;;;22.91;70.12
56582;BME280;42463;52.214;21.238;2023-07-13T05:34:26;100007.61;;;22.95;70.11
56582;BME280;42463;52.214;21.238;2023-07-13T05:36:32;100013.26;;;22.96;70.02
56582;BME280;42463;52.214;21.238;2023-07-13T05:38:38;100015.75;;;22.95;70.24
56582;BME280;42463;52.214;21.238;2023-07-13T05:40:45;100024.11;;;22.95;69.92
56582;BME280;42463;52.214;21.238;2023-07-13T05:42:51;100026.95;;;22.94;70.27
56582;BME280;42463;52.214;21.238;2023-07-13T05:44:56;100027.09;;;22.96;70.17
56582;BME280;42463;52.214;21.238;2023-07-13T05:47:03;100028.27;;;23.01;70.02
56582;BME280;42463;52.214;21.238;2023-07-13T05:49:08;100030.58;;;23.07;69.92
56582;BME280;42463;52.214;21.238;2023-07-13T05:51:14;100033.60;;;23.12;69.69
56582;BME280;42463;52.214;21.238;2023-07-13T05:53:20;100034.42;;;23.18;69.40
56582;BME280;42463;52.214;21.238;2023-07-13T05:55:26;100032.06;;;23.21;69.25
56582;BME280;42463;52.214;21.238;2023-07-13T05:57:33;100031.94;;;23.22;69.13
56582;BME280;42463;52.214;21.238;2023-07-13T05:59:38;100031.31;;;23.28;69.41
56582;BME280;42463;52.214;21.238;2023-07-13T06:01:44;100034.16;;;23.36;69.22
56582;BME280;42463;52.214;21.238;2023-07-13T06:03:49;100032.51;;;23.44;68.63
56582;BME280;42463;52.214;21.238;2023-07-13T06:05:56;100028.02;;;23.49;68.48
56582;BME280;42463;52.214;21.238;2023-07-13T06:08:04;100023.06;;;23.55;68.29
56582;BME280;42463;52.214;21.238;2023-07-13T06:10:11;100019.87;;;23.59;67.97
56582;BME280;42463;52.214;21.238;2023-07-13T06:12:16;100019.36;;;23.64;68.14
56582;BME280;42463;52.214;21.238;2023-07-13T06:14:22;100021.58;;;23.66;67.59
56582;BME280;42463;52.214;21.238;2023-07-13T06:16:28;100020.20;;;23.71;67.81
56582;BME280;42463;52.214;21.238;2023-07-13T06:18:35;100010.27;;;23.78;67.63
56582;BME280;42463;52.214;21.238;2023-07-13T06:20:41;100014.02;;;23.87;67.34
56582;BME280;42463;52.214;21.238;2023-07-13T06:22:47;100013.10;;;23.94;66.93
56582;BME280;42463;52.214;21.238;2023-07-13T06:24:53;100011.20;;;23.99;66.27
56582;BME280;42463;52.214;21.238;2023-07-13T06:26:58;100014.09;;;24.04;65.97
56582;BME280;42463;52.214;21.238;2023-07-13T06:29:04;100013.02;;;24.10;65.67
56582;BME280;42463;52.214;21.238;2023-07-13T06:31:12;100013.14;;;24.14;65.36
56582;BME280;42463;52.214;21.238;2023-07-13T06:33:18;100015.68;;;24.15;65.04
56582;BME280;42463;52.214;21.238;2023-07-13T06:35:24;100022.68;;;24.13;64.36
56582;BME280;42463;52.214;21.238;2023-07-13T06:37:29;100016.63;;;24.15;62.95
56582;BME280;42463;52.214;21.238;2023-07-13T06:39:35;100018.05;;;24.17;62.17
56582;BME280;42463;52.214;21.238;2023-07-13T06:41:41;100008.55;;;24.21;61.87
56582;BME280;42463;52.214;21.238;2023-07-13T06:43:48;100001.98;;;24.24;61.92
56582;BME280;42463;52.214;21.238;2023-07-13T06:45:56;99997.23;;;24.29;61.02
56582;BME280;42463;52.214;21.238;2023-07-13T06:48:01;99998.84;;;24.33;60.55
56582;BME280;42463;52.214;21.238;2023-07-13T06:50:09;99997.25;;;24.36;60.35
56582;BME280;42463;52.214;21.238;2023-07-13T06:52:15;99998.17;;;24.41;60.62
56582;BME280;42463;52.214;21.238;2023-07-13T06:54:21;99999.19;;;24.47;60.65
56582;BME280;42463;52.214;21.238;2023-07-13T06:56:26;99999.03;;;24.50;60.09
56582;BME280;42463;52.214;21.238;2023-07-13T06:58:33;100001.66;;;24.50;59.83
56582;BME280;42463;52.214;21.238;2023-07-13T07:00:39;100000.10;;;24.55;57.12
56582;BME280;42463;52.214;21.238;2023-07-13T07:02:44;100006.38;;;24.59;56.48
56582;BME280;42463;52.214;21.238;2023-07-13T07:04:50;100010.04;;;24.62;56.45
56582;BME280;42463;52.214;21.238;2023-07-13T07:06:55;100009.33;;;24.66;56.30
56582;BME280;42463;52.214;21.238;2023-07-13T07:09:01;100007.97;;;24.68;56.52
56582;BME280;42463;52.214;21.238;2023-07-13T07:11:08;100004.82;;;24.72;56.24
56582;BME280;42463;52.214;21.238;2023-07-13T07:13:13;99998.77;;;24.78;55.23
56582;BME280;42463;52.214;21.238;2023-07-13T07:15:19;100003.33;;;24.87;55.11
56582;BME280;42463;52.214;21.238;2023-07-13T07:17:25;100004.32;;;24.94;55.29
56582;BME280;42463;52.214;21.238;2023-07-13T07:19:32;100005.68;;;25.03;55.70
56582;BME280;42463;52.214;21.238;2023-07-13T07:21:38;100005.75;;;25.09;55.45
56582;BME280;42463;52.214;21.238;2023-07-13T07:23:45;100003.19;;;25.16;55.21
56582;BME280;42463;52.214;21.238;2023-07-13T07:25:51;100003.27;;;25.22;55.18
56582;BME280;42463;52.214;21.238;2023-07-13T07:27:56;100001.20;;;25.29;54.73
56582;BME280;42463;52.214;21.238;2023-07-13T07:30:02;100005.30;;;25.35;54.03
56582;BME280;42463;52.214;21.238;2023-07-13T07:32:09;100011.64;;;25.39;53.42
56582;BME280;42463;52.214;21.238;2023-07-13T07:34:14;100013.42;;;25.41;52.49
56582;BME280;42463;52.214;21.238;2023-07-13T07:36:20;100010.40;;;25.44;52.41
56582;BME280;42463;52.214;21.238;2023-07-13T07:38:25;100017.30;;;25.48;52.95
56582;BME280;42463;52.214;21.238;2023-07-13T07:40:35;100013.50;;;25.52;52.95
56582;BME280;42463;52.214;21.238;2023-07-13T07:42:41;100012.16;;;25.45;51.04
56582;BME280;42463;52.214;21.238;2023-07-13T07:44:46;100022.27;;;25.39;52.33
56582;BME280;42463;52.214;21.238;2023-07-13T07:46:52;100022.05;;;25.40;52.62
56582;BME280;42463;52.214;21.238;2023-07-13T07:48:58;100028.32;;;25.47;53.02
56582;BME280;42463;52.214;21.238;2023-07-13T07:51:03;100028.02;;;25.55;52.59
56582;BME280;42463;52.214;21.238;2023-07-13T07:53:09;100028.74;;;25.63;52.69
56582;BME280;42463;52.214;21.238;2023-07-13T07:55:14;100026.23;;;25.70;52.65
56582;BME280;42463;52.214;21.238;2023-07-13T07:57:20;100019.73;;;25.76;52.25
56582;BME280;42463;52.214;21.238;2023-07-13T07:59:25;100021.14;;;25.82;51.85
56582;BME280;42463;52.214;21.238;2023-07-13T08:01:31;100024.59;;;25.88;51.25
56582;BME280;42463;52.214;21.238;2023-07-13T08:03:36;100019.48;;;25.87;49.95
56582;BME280;42463;52.214;21.238;2023-07-13T08:05:42;100023.83;;;25.81;50.15
56582;BME280;42463;52.214;21.238;2023-07-13T08:07:47;100024.01;;;25.83;50.95
56582;BME280;42463;52.214;21.238;2023-07-13T08:09:54;100023.67;;;25.90;51.23
56582;BME280;42463;52.214;21.238;2023-07-13T08:12:00;100017.56;;;25.98;51.52
56582;BME280;42463;52.214;21.238;2023-07-13T08:14:06;100017.80;;;26.05;51.48
56582;BME280;42463;52.214;21.238;2023-07-13T08:16:11;100014.25;;;26.10;51.14
56582;BME280;42463;52.214;21.238;2023-07-13T08:18:17;100015.02;;;26.17;51.59
56582;BME280;42463;52.214;21.238;2023-07-13T08:20:23;100014.98;;;26.25;51.32
56582;BME280;42463;52.214;21.238;2023-07-13T08:22:29;100014.59;;;26.32;50.54
56582;BME280;42463;52.214;21.238;2023-07-13T08:24:34;100011.46;;;26.39;50.40
56582;BME280;42463;52.214;21.238;2023-07-13T08:26:40;100016.48;;;26.48;49.98
56582;BME280;42463;52.214;21.238;2023-07-13T08:28:45;100019.02;;;26.53;48.78
56582;BME280;42463;52.214;21.238;2023-07-13T08:30:51;100016.55;;;26.57;48.11
56582;BME280;42463;52.214;21.238;2023-07-13T08:32:56;100020.05;;;26.61;47.64
56582;BME280;42463;52.214;21.238;2023-07-13T08:35:02;100012.98;;;26.67;47.58
56582;BME280;42463;52.214;21.238;2023-07-13T08:37:08;100013.70;;;26.77;47.62
56582;BME280;42463;52.214;21.238;2023-07-13T08:39:15;100017.44;;;26.87;47.93
56582;BME280;42463;52.214;21.238;2023-07-13T08:41:21;100013.73;;;26.89;47.18
56582;BME280;42463;52.214;21.238;2023-07-13T08:43:30;100010.52;;;26.88;47.28
56582;BME280;42463;52.214;21.238;2023-07-13T08:45:42;100008.48;;;26.90;47.40
56582;BME280;42463;52.214;21.238;2023-07-13T08:47:51;100008.77;;;26.97;46.55
56582;BME280;42463;52.214;21.238;2023-07-13T08:49:58;100011.77;;;26.96;46.27
56582;BME280;42463;52.214;21.238;2023-07-13T08:52:10;100013.88;;;27.02;46.47
56582;BME280;42463;52.214;21.238;2023-07-13T08:54:26;100015.33;;;27.03;45.97
56582;BME280;42463;52.214;21.238;2023-07-13T08:56:33;100017.91;;;27.10;46.81
56582;BME280;42463;52.214;21.238;2023-07-13T08:58:40;100018.51;;;27.18;45.30
56582;BME280;42463;52.214;21.238;2023-07-13T09:00:55;100019.91;;;27.21;44.79
56582;BME280;42463;52.214;21.238;2023-07-13T09:03:04;100021.66;;;27.26;44.84
56582;BME280;42463;52.214;21.238;2023-07-13T09:05:12;100019.40;;;27.35;45.69
56582;BME280;42463;52.214;21.238;2023-07-13T09:07:29;100019.39;;;27.47;45.24
56582;BME280;42463;52.214;21.238;2023-07-13T09:09:48;100018.38;;;27.54;44.85
56582;BME280;42463;52.214;21.238;2023-07-13T09:12:05;100022.59;;;27.63;44.39
56582;BME280;42463;52.214;21.238;2023-07-13T09:14:34;100023.02;;;27.67;43.91
56582;BME280;42463;52.214;21.238;2023-07-13T09:16:44;100017.16;;;27.70;43.97
56582;BME280;42463;52.214;21.238;2023-07-13T09:18:52;100018.19;;;27.75;44.15
56582;BME280;42463;52.214;21.238;2023-07-13T09:21:02;100018.64;;;27.80;43.96
56582;BME280;42463;52.214;21.238;2023-07-13T09:23:14;100020.92;;;27.85;43.90
56582;BME280;42463;52.214;21.238;2023-07-13T09:25:26;100019.23;;;27.90;43.73
56582;BME280;42463;52.214;21.238;2023-07-13T09:27:36;100017.58;;;27.91;43.47
56582;BME280;42463;52.214;21.238;2023-07-13T09:29:47;100010.61;;;27.95;43.33
56582;BME280;42463;52.214;21.238;2023-07-13T09:31:57;100004.77;;;27.99;43.69
56582;BME280;42463;52.214;21.238;2023-07-13T09:34:03;100003.35;;;28.08;43.83
56582;BME280;42463;52.214;21.238;2023-07-13T09:36:25;100002.14;;;28.19;44.21
56582;BME280;42463;52.214;21.238;2023-07-13T09:38:31;99997.63;;;28.28;44.03
56582;BME280;42463;52.214;21.238;2023-07-13T09:40:44;99991.95;;;28.35;44.15
56582;BME280;42463;52.214;21.238;2023-07-13T09:42:53;99998.72;;;28.42;44.16
56582;BME280;42463;52.214;21.238;2023-07-13T09:45:01;99995.57;;;28.47;44.27
56582;BME280;42463;52.214;21.238;2023-07-13T09:47:18;99992.67;;;28.44;44.63
56582;BME280;42463;52.214;21.238;2023-07-13T09:49:26;99997.58;;;28.40;44.98
56582;BME280;42463;52.214;21.238;2023-07-13T09:51:33;100003.95;;;28.32;45.07
56582;BME280;42463;52.214;21.238;2023-07-13T09:53:43;100024.35;;;28.24;44.67
56582;BME280;42463;52.214;21.238;2023-07-13T09:55:49;100024.73;;;28.15;42.88
56582;BME280;42463;52.214;21.238;2023-07-13T09:57:56;100021.30;;;28.03;41.85
56582;BME280;42463;52.214;21.238;2023-07-13T10:00:03;100019.52;;;27.88;41.23
56582;BME280;42463;52.214;21.238;2023-07-13T10:04:42;100012.50;;;27.66;42.08
56582;BME280;42463;52.214;21.238;2023-07-13T10:06:48;100005.10;;;27.56;42.45
56582;BME280;42463;52.214;21.238;2023-07-13T10:09:10;100003.95;;;27.47;42.13
56582;BME280;42463;52.214;21.238;2023-07-13T10:11:21;100001.23;;;27.34;41.77
56582;BME280;42463;52.214;21.238;2023-07-13T10:13:34;99998.88;;;27.19;41.94
56582;BME280;42463;52.214;21.238;2023-07-13T10:15:41;99998.20;;;27.11;42.20
56582;BME280;42463;52.214;21.238;2023-07-13T10:17:47;99996.55;;;27.03;42.19
56582;BME280;42463;52.214;21.238;2023-07-13T10:19:53;99992.37;;;26.92;42.11
56582;BME280;42463;52.214;21.238;2023-07-13T10:22:00;99984.98;;;26.81;41.97
56582;BME280;42463;52.214;21.238;2023-07-13T10:24:15;99979.48;;;26.71;42.08
56582;BME280;42463;52.214;21.238;2023-07-13T10:26:23;99981.77;;;26.60;42.34
56582;BME280;42463;52.214;21.238;2023-07-13T10:28:33;99990.52;;;26.51;42.40
56582;BME280;42463;52.214;21.238;2023-07-13T10:30:42;99983.48;;;26.39;42.86
56582;BME280;42463;52.214;21.238;2023-07-13T10:32:51;99973.78;;;26.34;43.13
56582;BME280;42463;52.214;21.238;2023-07-13T10:34:58;99964.79;;;26.29;43.43
56582;BME280;42463;52.214;21.238;2023-07-13T10:37:07;99958.91;;;26.21;43.52
56582;BME280;42463;52.214;21.238;2023-07-13T10:39:23;99960.92;;;26.13;44.08
56582;BME280;42463;52.214;21.238;2023-07-13T10:41:32;99961.61;;;26.07;44.14
56582;BME280;42463;52.214;21.238;2023-07-13T10:43:41;99963.28;;;25.99;44.30
56582;BME280;42463;52.214;21.238;2023-07-13T10:45:49;99960.98;;;25.97;44.48
56582;BME280;42463;52.214;21.238;2023-07-13T10:47:56;99963.25;;;25.94;44.73
56582;BME280;42463;52.214;21.238;2023-07-13T10:50:05;99961.23;;;25.93;44.83
56582;BME280;42463;52.214;21.238;2023-07-13T10:52:42;99973.48;;;25.94;44.74
56582;BME280;42463;52.214;21.238;2023-07-13T10:54:48;99976.15;;;25.92;44.33
56582;BME280;42463;52.214;21.238;2023-07-13T10:57:12;99971.09;;;25.85;44.65
56582;BME280;42463;52.214;21.238;2023-07-13T10:59:26;99964.20;;;25.77;44.66
56582;BME280;42463;52.214;21.238;2023-07-13T11:01:46;99962.34;;;25.76;45.06
56582;BME280;42463;52.214;21.238;2023-07-13T11:03:58;99959.35;;;25.73;45.49
56582;BME280;42463;52.214;21.238;2023-07-13T11:06:11;99962.26;;;25.71;45.96
56582;BME280;42463;52.214;21.238;2023-07-13T11:08:23;99972.41;;;25.67;46.31
56582;BME280;42463;52.214;21.238;2023-07-13T11:10:51;99976.46;;;25.61;46.46
56582;BME280;42463;52.214;21.238;2023-07-13T11:12:58;99981.46;;;25.57;46.87
56582;BME280;42463;52.214;21.238;2023-07-13T11:15:12;99985.08;;;25.52;47.23
56582;BME280;42463;52.214;21.238;2023-07-13T11:17:35;99992.09;;;25.42;49.01
56582;BME280;42463;52.214;21.238;2023-07-13T11:19:42;100009.86;;;25.27;50.43
56582;BME280;42463;52.214;21.238;2023-07-13T11:24:20;100046.25;;;24.90;52.23
56582;BME280;42463;52.214;21.238;2023-07-13T11:26:40;100053.13;;;24.74;52.43
56582;BME280;42463;52.214;21.238;2023-07-13T11:28:50;100055.15;;;24.60;52.59
56582;BME280;42463;52.214;21.238;2023-07-13T11:31:10;100056.87;;;24.47;53.07
56582;BME280;42463;52.214;21.238;2023-07-13T11:33:22;100067.50;;;24.30;53.94
56582;BME280;42463;52.214;21.238;2023-07-13T11:35:29;100078.38;;;24.17;55.29
56582;BME280;42463;52.214;21.238;2023-07-13T11:37:34;100092.55;;;24.01;56.06
56582;BME280;42463;52.214;21.238;2023-07-13T11:39:43;100095.02;;;23.86;56.76
56582;BME280;42463;52.214;21.238;2023-07-13T11:41:53;100091.45;;;23.69;58.04
56582;BME280;42463;52.214;21.238;2023-07-13T11:44:11;100095.79;;;23.56;59.06
56582;BME280;42463;52.214;21.238;2023-07-13T11:46:22;100092.80;;;23.39;59.38
56582;BME280;42463;52.214;21.238;2023-07-13T11:48:30;100089.53;;;23.31;59.97
56582;BME280;42463;52.214;21.238;2023-07-13T11:50:36;100086.92;;;23.23;60.26
56582;BME280;42463;52.214;21.238;2023-07-13T11:52:42;100086.64;;;23.14;60.33
56582;BME280;42463;52.214;21.238;2023-07-13T11:54:51;100091.85;;;23.07;61.07
56582;BME280;42463;52.214;21.238;2023-07-13T11:57:03;100095.98;;;23.05;61.26
56582;BME280;42463;52.214;21.238;2023-07-13T11:59:14;100106.27;;;23.05;61.58
56582;BME280;42463;52.214;21.238;2023-07-13T12:01:23;100111.98;;;23.04;61.97
56582;BME280;42463;52.214;21.238;2023-07-13T12:03:31;100123.86;;;22.97;62.18
56582;BME280;42463;52.214;21.238;2023-07-13T12:05:37;100136.26;;;22.85;61.98
56582;BME280;42463;52.214;21.238;2023-07-13T12:08:10;100144.34;;;22.76;62.66